sensor_id;sensor_type;location;lat;lon;timestamp;pressure;altitude;pressure_sealevel;temperature;humidity
56038;BME280;41907;47.848;9.000;2023-09-12T00:00:32;95492.91;;;17.58;100.00
56038;BME280;41907;47.848;9.000;2023-09-12T00:02:57;95495.59;;;17.58;100.00
56038;BME280;41907;47.848;9.000;2023-09-12T00:05:24;95493.91;;;17.49;100.00
56038;BME280;41907;47.848;9.000;2023-09-12T00:07:52;95494.84;;;17.38;100.00
56038;BME280;41907;47.848;9.000;2023-09-12T00:10:17;95495.06;;;17.29;100.00
56038;BME280;41907;47.848;9.000;2023-09-12T00:12:43;95496.97;;;17.29;100.00
56038;BME280;41907;47.848;9.000;2023-09-12T00:15:08;95492.44;;;17.33;100.00
56038;BME280;41907;47.848;9.000;2023-09-12T00:17:33;95490.97;;;17.35;100.00
56038;BME280;41907;47.848;9.000;2023-09-12T00:19:59;95485.97;;;17.37;100.00
56038;BME280;41907;47.848;9.000;2023-09-12T00:22:24;95485.50;;;17.32;100.00
56038;BME280;41907;47.848;9.000;2023-09-12T00:24:49;95484.38;;;17.33;100.00
56038;BME280;41907;47.848;9.000;2023-09-12T00:27:15;95481.91;;;17.24;100.00
56038;BME280;41907;47.848;9.000;2023-09-12T00:29:40;95481.16;;;17.27;100.00
56038;BME280;41907;47.848;9.000;2023-09-12T00:32:05;95480.53;;;17.34;100.00
56038;BME280;41907;47.848;9.000;2023-09-12T00:34:31;95490.22;;;17.38;100.00
56038;BME280;41907;47.848;9.000;2023-09-12T00:36:56;95484.25;;;17.48;100.00
56038;BME280;41907;47.848;9.000;2023-09-12T00:39:21;95485.81;;;17.49;100.00
56038;BME280;41907;47.848;9.000;2023-09-12T00:41:47;95484.25;;;17.48;100.00
56038;BME280;41907;47.848;9.000;2023-09-12T00:44:12;95476.97;;;17.49;100.00
56038;BME280;41907;47.848;9.000;2023-09-12T00:46:38;95485.75;;;17.46;100.00
56038;BME280;41907;47.848;9.000;2023-09-12T00:49:06;95486.53;;;17.46;100.00
56038;BME280;41907;47.848;9.000;2023-09-12T00:51:33;95487.97;;;17.40;100.00
56038;BME280;41907;47.848;9.000;2023-09-12T00:53:59;95485.63;;;17.39;100.00
56038;BME280;41907;47.848;9.000;2023-09-12T00:56:26;95483.38;;;17.41;100.00
56038;BME280;41907;47.848;9.000;2023-09-12T00:58:51;95487.97;;;17.40;100.00
56038;BME280;41907;47.848;9.000;2023-09-12T01:01:20;95486.97;;;17.29;100.00
56038;BME280;41907;47.848;9.000;2023-09-12T01:03:46;95488.53;;;17.30;100.00
56038;BME280;41907;47.848;9.000;2023-09-12T01:06:12;95489.41;;;17.34;100.00
56038;BME280;41907;47.848;9.000;2023-09-12T01:08:39;95497.50;;;17.34;100.00
56038;BME280;41907;47.848;9.000;2023-09-12T01:11:05;95494.00;;;17.34;100.00
56038;BME280;41907;47.848;9.000;2023-09-12T01:13:31;95488.19;;;17.32;100.00
56038;BME280;41907;47.848;9.000;2023-09-12T01:15:57;95488.41;;;17.23;100.00
56038;BME280;41907;47.848;9.000;2023-09-12T01:18:22;95488.41;;;17.04;100.00
56038;BME280;41907;47.848;9.000;2023-09-12T01:21:09;95486.34;;;16.78;100.00
56038;BME280;41907;47.848;9.000;2023-09-12T01:26:30;95490.78;;;16.70;100.00
56038;BME280;41907;47.848;9.000;2023-09-12T01:29:04;95485.81;;;16.72;100.00
56038;BME280;41907;47.848;9.000;2023-09-12T01:31:31;95489.94;;;16.66;100.00
56038;BME280;41907;47.848;9.000;2023-09-12T01:34:08;95486.63;;;16.57;100.00
56038;BME280;41907;47.848;9.000;2023-09-12T01:36:33;95484.28;;;16.56;100.00
56038;BME280;41907;47.848;9.000;2023-09-12T01:38:59;95486.28;;;16.59;100.00
56038;BME280;41907;47.848;9.000;2023-09-12T01:41:24;95480.56;;;16.60;100.00
56038;BME280;41907;47.848;9.000;2023-09-12T01:43:50;95492.88;;;16.61;100.00
56038;BME280;41907;47.848;9.000;2023-09-12T01:46:18;95483.94;;;16.57;100.00
56038;BME280;41907;47.848;9.000;2023-09-12T01:48:44;95484.72;;;16.58;100.00
56038;BME280;41907;47.848;9.000;2023-09-12T01:51:10;95489.31;;;16.57;100.00
56038;BME280;41907;47.848;9.000;2023-09-12T01:53:37;95492.78;;;16.58;100.00
56038;BME280;41907;47.848;9.000;2023-09-12T01:56:03;95490.88;;;16.58;100.00
56038;BME280;41907;47.848;9.000;2023-09-12T01:58:28;95491.66;;;16.59;100.00
56038;BME280;41907;47.848;9.000;2023-09-12T02:00:54;95485.41;;;16.55;100.00
56038;BME280;41907;47.848;9.000;2023-09-12T02:03:19;95486.63;;;16.57;100.00
56038;BME280;41907;47.848;9.000;2023-09-12T02:05:45;95499.13;;;16.65;100.00
56038;BME280;41907;47.848;9.000;2023-09-12T02:08:10;95494.88;;;16.64;100.00
56038;BME280;41907;47.848;9.000;2023-09-12T02:10:35;95500.28;;;16.64;100.00
56038;BME280;41907;47.848;9.000;2023-09-12T02:13:01;95502.09;;;16.60;100.00
56038;BME280;41907;47.848;9.000;2023-09-12T02:15:26;95501.56;;;16.55;100.00
56038;BME280;41907;47.848;9.000;2023-09-12T02:17:52;95497.59;;;16.49;100.00
56038;BME280;41907;47.848;9.000;2023-09-12T02:20:17;95503.75;;;16.49;100.00
56038;BME280;41907;47.848;9.000;2023-09-12T02:22:43;95502.63;;;16.50;100.00
56038;BME280;41907;47.848;9.000;2023-09-12T02:25:08;95503.75;;;16.33;100.00
56038;BME280;41907;47.848;9.000;2023-09-12T02:27:34;95509.69;;;16.39;100.00
56038;BME280;41907;47.848;9.000;2023-09-12T02:29:59;95498.91;;;16.39;100.00
56038;BME280;41907;47.848;9.000;2023-09-12T02:32:25;95508.56;;;16.40;100.00
56038;BME280;41907;47.848;9.000;2023-09-12T02:34:50;95504.34;;;16.43;100.00
56038;BME280;41907;47.848;9.000;2023-09-12T02:37:15;95503.94;;;16.41;100.00
56038;BME280;41907;47.848;9.000;2023-09-12T02:39:41;95502.03;;;16.41;100.00
56038;BME280;41907;47.848;9.000;2023-09-12T02:42:06;95509.88;;;16.30;100.00
56038;BME280;41907;47.848;9.000;2023-09-12T02:44:32;95502.03;;;16.25;100.00
56038;BME280;41907;47.848;9.000;2023-09-12T02:46:57;95510.91;;;16.26;100.00
56038;BME280;41907;47.848;9.000;2023-09-12T02:49:22;95501.69;;;16.27;100.00
56038;BME280;41907;47.848;9.000;2023-09-12T02:51:48;95506.97;;;16.23;100.00
56038;BME280;41907;47.848;9.000;2023-09-12T02:54:13;95507.84;;;16.27;100.00
56038;BME280;41907;47.848;9.000;2023-09-12T02:56:38;95504.53;;;16.34;100.00
56038;BME280;41907;47.848;9.000;2023-09-12T02:59:04;95498.50;;;16.21;100.00
56038;BME280;41907;47.848;9.000;2023-09-12T03:01:30;95498.41;;;16.18;100.00
56038;BME280;41907;47.848;9.000;2023-09-12T03:03:55;95491.81;;;15.99;100.00
56038;BME280;41907;47.848;9.000;2023-09-12T03:06:21;95490.88;;;15.92;100.00
56038;BME280;41907;47.848;9.000;2023-09-12T03:08:49;95489.66;;;15.89;100.00
56038;BME280;41907;47.848;9.000;2023-09-12T03:11:15;95486.34;;;15.80;100.00
56038;BME280;41907;47.848;9.000;2023-09-12T03:13:41;95484.00;;;15.79;100.00
56038;BME280;41907;47.848;9.000;2023-09-12T03:16:10;95480.47;;;15.75;100.00
56038;BME280;41907;47.848;9.000;2023-09-12T03:18:35;95475.41;;;15.73;100.00
56038;BME280;41907;47.848;9.000;2023-09-12T03:21:01;95479.41;;;15.63;100.00
56038;BME280;41907;47.848;9.000;2023-09-12T03:23:26;95482.88;;;15.64;100.00
56038;BME280;41907;47.848;9.000;2023-09-12T03:25:52;95484.72;;;15.76;100.00
56038;BME280;41907;47.848;9.000;2023-09-12T03:28:17;95486.84;;;15.70;100.00
56038;BME280;41907;47.848;9.000;2023-09-12T03:30:43;95488.31;;;15.68;100.00
56038;BME280;41907;47.848;9.000;2023-09-12T03:33:08;95484.28;;;15.74;100.00
56038;BME280;41907;47.848;9.000;2023-09-12T03:35:34;95486.34;;;15.80;100.00
56038;BME280;41907;47.848;9.000;2023-09-12T03:38:00;95484.16;;;15.86;100.00
56038;BME280;41907;47.848;9.000;2023-09-12T03:40:28;95488.34;;;15.83;100.00
56038;BME280;41907;47.848;9.000;2023-09-12T03:42:55;95487.75;;;15.90;100.00
56038;BME280;41907;47.848;9.000;2023-09-12T03:45:20;95497.81;;;15.93;100.00
56038;BME280;41907;47.848;9.000;2023-09-12T03:47:46;95486.28;;;15.92;100.00
56038;BME280;41907;47.848;9.000;2023-09-12T03:50:12;95492.00;;;15.75;100.00
56038;BME280;41907;47.848;9.000;2023-09-12T03:52:38;95486.97;;;15.74;100.00
56038;BME280;41907;47.848;9.000;2023-09-12T03:55:03;95500.56;;;15.81;100.00
56038;BME280;41907;47.848;9.000;2023-09-12T03:57:29;95489.38;;;15.79;100.00
56038;BME280;41907;47.848;9.000;2023-09-12T03:59:54;95495.88;;;15.78;100.00
56038;BME280;41907;47.848;9.000;2023-09-12T04:02:19;95495.09;;;15.77;100.00
56038;BME280;41907;47.848;9.000;2023-09-12T04:04:45;95479.91;;;15.69;100.00
56038;BME280;41907;47.848;9.000;2023-09-12T04:07:10;95486.84;;;15.70;100.00
56038;BME280;41907;47.848;9.000;2023-09-12T04:09:35;95488.75;;;15.70;100.00
56038;BME280;41907;47.848;9.000;2023-09-12T04:12:01;95491.19;;;15.59;100.00
56038;BME280;41907;47.848;9.000;2023-09-12T04:14:26;95495.13;;;15.49;100.00
56038;BME280;41907;47.848;9.000;2023-09-12T04:16:52;95503.59;;;15.36;100.00
56038;BME280;41907;47.848;9.000;2023-09-12T04:19:17;95492.50;;;15.37;100.00
56038;BME280;41907;47.848;9.000;2023-09-12T04:21:42;95501.53;;;15.45;100.00
56038;BME280;41907;47.848;9.000;2023-09-12T04:24:08;95493.72;;;15.40;100.00
56038;BME280;41907;47.848;9.000;2023-09-12T04:26:34;95492.09;;;15.23;100.00
56038;BME280;41907;47.848;9.000;2023-09-12T04:28:59;95494.06;;;15.10;100.00
56038;BME280;41907;47.848;9.000;2023-09-12T04:31:25;95493.06;;;15.03;100.00
56038;BME280;41907;47.848;9.000;2023-09-12T04:33:51;95489.09;;;14.97;100.00
56038;BME280;41907;47.848;9.000;2023-09-12T04:36:17;95492.56;;;14.97;100.00
56038;BME280;41907;47.848;9.000;2023-09-12T04:38:42;95490.06;;;15.04;100.00
56038;BME280;41907;47.848;9.000;2023-09-12T04:41:08;95484.88;;;15.11;100.00
56038;BME280;41907;47.848;9.000;2023-09-12T04:43:33;95491.03;;;15.12;100.00
56038;BME280;41907;47.848;9.000;2023-09-12T04:45:59;95487.56;;;15.11;100.00
56038;BME280;41907;47.848;9.000;2023-09-12T04:48:24;95491.72;;;15.09;100.00
56038;BME280;41907;47.848;9.000;2023-09-12T04:50:50;95496.31;;;15.08;100.00
56038;BME280;41907;47.848;9.000;2023-09-12T04:53:15;95493.88;;;15.03;100.00
56038;BME280;41907;47.848;9.000;2023-09-12T04:55:41;95499.53;;;15.14;100.00
56038;BME280;41907;47.848;9.000;2023-09-12T04:58:07;95501.22;;;15.18;100.00
56038;BME280;41907;47.848;9.000;2023-09-12T05:00:33;95504.41;;;15.24;100.00
56038;BME280;41907;47.848;9.000;2023-09-12T05:02:59;95511.03;;;15.26;100.00
56038;BME280;41907;47.848;9.000;2023-09-12T05:05:24;95501.47;;;15.29;100.00
56038;BME280;41907;47.848;9.000;2023-09-12T05:07:50;95502.19;;;15.26;100.00
56038;BME280;41907;47.848;9.000;2023-09-12T05:10:16;95504.38;;;15.36;100.00
56038;BME280;41907;47.848;9.000;2023-09-12T05:12:42;95501.25;;;15.34;100.00
56038;BME280;41907;47.848;9.000;2023-09-12T05:15:07;95504.28;;;15.33;100.00
56038;BME280;41907;47.848;9.000;2023-09-12T05:17:33;95507.94;;;15.40;100.00
56038;BME280;41907;47.848;9.000;2023-09-12T05:19:58;95512.47;;;15.52;100.00
56038;BME280;41907;47.848;9.000;2023-09-12T05:22:23;95510.44;;;15.77;100.00
56038;BME280;41907;47.848;9.000;2023-09-12T05:24:49;95509.09;;;15.98;100.00
56038;BME280;41907;47.848;9.000;2023-09-12T05:27:14;95502.75;;;16.07;100.00
56038;BME280;41907;47.848;9.000;2023-09-12T05:29:40;95514.03;;;16.28;100.00
56038;BME280;41907;47.848;9.000;2023-09-12T05:32:05;95510.13;;;16.25;100.00
56038;BME280;41907;47.848;9.000;2023-09-12T05:34:31;95519.03;;;16.45;100.00
56038;BME280;41907;47.848;9.000;2023-09-12T05:36:56;95525.28;;;16.65;100.00
56038;BME280;41907;47.848;9.000;2023-09-12T05:39:22;95525.09;;;16.73;100.00
56038;BME280;41907;47.848;9.000;2023-09-12T05:41:48;95526.69;;;16.94;100.00
56038;BME280;41907;47.848;9.000;2023-09-12T05:44:14;95529.88;;;17.19;100.00
56038;BME280;41907;47.848;9.000;2023-09-12T05:46:45;95530.97;;;17.53;100.00
56038;BME280;41907;47.848;9.000;2023-09-12T05:49:11;95530.06;;;17.87;100.00
56038;BME280;41907;47.848;9.000;2023-09-12T05:51:36;95528.72;;;18.19;100.00
56038;BME280;41907;47.848;9.000;2023-09-12T05:54:01;95532.75;;;18.55;100.00
56038;BME280;41907;47.848;9.000;2023-09-12T05:56:28;95531.34;;;18.39;100.00
56038;BME280;41907;47.848;9.000;2023-09-12T05:58:53;95532.19;;;19.25;100.00
56038;BME280;41907;47.848;9.000;2023-09-12T06:01:19;95537.41;;;20.12;96.44
56038;BME280;41907;47.848;9.000;2023-09-12T06:03:44;95545.09;;;20.06;91.60
56038;BME280;41907;47.848;9.000;2023-09-12T06:06:09;95544.56;;;19.53;95.08
56038;BME280;41907;47.848;9.000;2023-09-12T06:08:35;95542.84;;;19.41;96.86
56038;BME280;41907;47.848;9.000;2023-09-12T06:11:00;95543.31;;;19.84;93.58
56038;BME280;41907;47.848;9.000;2023-09-12T06:13:25;95543.13;;;19.62;94.29
56038;BME280;41907;47.848;9.000;2023-09-12T06:15:51;95551.63;;;19.34;96.99
56038;BME280;41907;47.848;9.000;2023-09-12T06:18:16;95545.66;;;19.48;97.86
56038;BME280;41907;47.848;9.000;2023-09-12T06:20:43;95547.38;;;20.00;93.91
56038;BME280;41907;47.848;9.000;2023-09-12T06:23:09;95551.59;;;20.35;90.46
56038;BME280;41907;47.848;9.000;2023-09-12T06:25:35;95544.72;;;20.08;90.91
56038;BME280;41907;47.848;9.000;2023-09-12T06:28:01;95546.09;;;20.28;89.97
56038;BME280;41907;47.848;9.000;2023-09-12T06:30:26;95543.31;;;21.23;85.59
56038;BME280;41907;47.848;9.000;2023-09-12T06:32:51;95544.50;;;21.36;83.61
56038;BME280;41907;47.848;9.000;2023-09-12T06:35:18;95544.31;;;21.01;84.65
56038;BME280;41907;47.848;9.000;2023-09-12T06:37:43;95544.94;;;20.80;86.47
56038;BME280;41907;47.848;9.000;2023-09-12T06:40:09;95547.28;;;20.82;86.41
56038;BME280;41907;47.848;9.000;2023-09-12T06:42:35;95542.88;;;20.59;87.45
56038;BME280;41907;47.848;9.000;2023-09-12T06:45:00;95540.66;;;20.28;90.47
56038;BME280;41907;47.848;9.000;2023-09-12T06:47:25;95539.25;;;20.00;92.88
56038;BME280;41907;47.848;9.000;2023-09-12T06:49:51;95550.78;;;19.94;94.87
56038;BME280;41907;47.848;9.000;2023-09-12T06:52:16;95545.59;;;19.78;96.64
56038;BME280;41907;47.848;9.000;2023-09-12T06:54:42;95551.63;;;19.64;98.04
56038;BME280;41907;47.848;9.000;2023-09-12T06:57:07;95553.50;;;19.30;100.00
56038;BME280;41907;47.848;9.000;2023-09-12T06:59:32;95551.38;;;19.43;100.00
56038;BME280;41907;47.848;9.000;2023-09-12T07:01:58;95543.47;;;19.61;100.00
56038;BME280;41907;47.848;9.000;2023-09-12T07:04:23;95559.06;;;19.75;100.00
56038;BME280;41907;47.848;9.000;2023-09-12T07:06:49;95559.16;;;19.82;100.00
56038;BME280;41907;47.848;9.000;2023-09-12T07:09:16;95556.34;;;20.12;100.00
56038;BME280;41907;47.848;9.000;2023-09-12T07:11:41;95557.88;;;20.50;97.54
56038;BME280;41907;47.848;9.000;2023-09-12T07:14:08;95552.97;;;21.21;91.21
56038;BME280;41907;47.848;9.000;2023-09-12T07:16:34;95567.31;;;22.43;86.54
56038;BME280;41907;47.848;9.000;2023-09-12T07:18:59;95560.50;;;23.72;76.45
56038;BME280;41907;47.848;9.000;2023-09-12T07:21:25;95567.25;;;25.90;63.23
56038;BME280;41907;47.848;9.000;2023-09-12T07:23:50;95573.03;;;27.66;55.51
56038;BME280;41907;47.848;9.000;2023-09-12T07:26:15;95567.38;;;28.65;51.12
56038;BME280;41907;47.848;9.000;2023-09-12T07:28:41;95567.22;;;28.88;49.84
56038;BME280;41907;47.848;9.000;2023-09-12T07:31:06;95570.59;;;29.41;48.22
56038;BME280;41907;47.848;9.000;2023-09-12T07:33:32;95575.41;;;29.37;48.12
56038;BME280;41907;47.848;9.000;2023-09-12T07:35:57;95582.47;;;30.34;43.87
56038;BME280;41907;47.848;9.000;2023-09-12T07:38:25;95592.38;;;31.08;43.76
56038;BME280;41907;47.848;9.000;2023-09-12T07:40:50;95584.56;;;31.97;40.59
56038;BME280;41907;47.848;9.000;2023-09-12T07:43:16;95597.63;;;32.67;39.12
56038;BME280;41907;47.848;9.000;2023-09-12T07:45:41;95596.38;;;32.59;38.11
56038;BME280;41907;47.848;9.000;2023-09-12T07:48:08;95593.38;;;31.14;42.04
56038;BME280;41907;47.848;9.000;2023-09-12T07:50:34;95602.41;;;30.89;43.17
56038;BME280;41907;47.848;9.000;2023-09-12T07:53:00;95604.59;;;31.19;42.26
56038;BME280;41907;47.848;9.000;2023-09-12T07:55:25;95606.19;;;31.42;42.40
56038;BME280;41907;47.848;9.000;2023-09-12T07:57:51;95611.38;;;31.74;41.95
56038;BME280;41907;47.848;9.000;2023-09-12T08:00:16;95604.44;;;32.13;41.52
56038;BME280;41907;47.848;9.000;2023-09-12T08:02:42;95605.13;;;32.98;40.72
56038;BME280;41907;47.848;9.000;2023-09-12T08:05:08;95606.97;;;32.92;41.12
56038;BME280;41907;47.848;9.000;2023-09-12T08:07:34;95603.72;;;33.97;38.01
56038;BME280;41907;47.848;9.000;2023-09-12T08:09:59;95606.31;;;33.64;38.16
56038;BME280;41907;47.848;9.000;2023-09-12T08:12:27;95598.16;;;33.42;38.59
56038;BME280;41907;47.848;9.000;2023-09-12T08:14:53;95601.94;;;33.17;40.92
56038;BME280;41907;47.848;9.000;2023-09-12T08:17:18;95602.78;;;34.00;38.72
56038;BME280;41907;47.848;9.000;2023-09-12T08:19:44;95605.41;;;34.97;36.89
56038;BME280;41907;47.848;9.000;2023-09-12T08:22:10;95610.50;;;35.22;36.65
56038;BME280;41907;47.848;9.000;2023-09-12T08:24:37;95603.25;;;34.59;37.16
56038;BME280;41907;47.848;9.000;2023-09-12T08:27:03;95600.94;;;34.99;35.36
56038;BME280;41907;47.848;9.000;2023-09-12T08:29:29;95609.47;;;35.58;35.28
56038;BME280;41907;47.848;9.000;2023-09-12T08:31:54;95604.00;;;35.73;37.10
56038;BME280;41907;47.848;9.000;2023-09-12T08:34:20;95606.94;;;36.37;33.68
56038;BME280;41907;47.848;9.000;2023-09-12T08:36:46;95608.72;;;35.96;35.71
56038;BME280;41907;47.848;9.000;2023-09-12T08:39:17;95614.69;;;36.18;35.19
56038;BME280;41907;47.848;9.000;2023-09-12T08:41:43;95611.44;;;35.67;34.65
56038;BME280;41907;47.848;9.000;2023-09-12T08:44:09;95609.56;;;35.73;36.87
56038;BME280;41907;47.848;9.000;2023-09-12T08:46:34;95602.03;;;36.03;34.46
56038;BME280;41907;47.848;9.000;2023-09-12T08:49:03;95596.53;;;36.32;34.52
56038;BME280;41907;47.848;9.000;2023-09-12T08:51:29;95605.59;;;36.03;35.67
56038;BME280;41907;47.848;9.000;2023-09-12T08:53:56;95596.41;;;36.41;33.92
56038;BME280;41907;47.848;9.000;2023-09-12T08:56:21;95597.78;;;36.96;33.16
56038;BME280;41907;47.848;9.000;2023-09-12T08:58:47;95605.09;;;37.13;33.69
56038;BME280;41907;47.848;9.000;2023-09-12T09:01:13;95611.31;;;37.43;32.47
56038;BME280;41907;47.848;9.000;2023-09-12T09:03:41;95614.94;;;37.49;33.59
56038;BME280;41907;47.848;9.000;2023-09-12T09:06:11;95607.84;;;37.48;33.08
56038;BME280;41907;47.848;9.000;2023-09-12T09:08:37;95617.66;;;37.44;33.83
56038;BME280;41907;47.848;9.000;2023-09-12T09:11:03;95616.66;;;37.87;32.79
56038;BME280;41907;47.848;9.000;2023-09-12T09:13:29;95605.50;;;38.08;31.47
56038;BME280;41907;47.848;9.000;2023-09-12T09:16:17;95606.13;;;38.17;31.27
56038;BME280;41907;47.848;9.000;2023-09-12T09:21:25;95589.94;;;37.75;31.57
56038;BME280;41907;47.848;9.000;2023-09-12T09:23:52;95584.25;;;36.68;34.55
56038;BME280;41907;47.848;9.000;2023-09-12T09:26:18;95573.72;;;37.13;33.51
56038;BME280;41907;47.848;9.000;2023-09-12T09:28:44;95581.25;;;37.07;32.13
56038;BME280;41907;47.848;9.000;2023-09-12T09:31:11;95579.19;;;37.22;33.47
56038;BME280;41907;47.848;9.000;2023-09-12T09:33:37;95578.09;;;37.75;33.15
56038;BME280;41907;47.848;9.000;2023-09-12T09:36:04;95573.38;;;37.86;32.98
56038;BME280;41907;47.848;9.000;2023-09-12T09:38:30;95571.13;;;37.65;33.32
56038;BME280;41907;47.848;9.000;2023-09-12T09:40:56;95574.28;;;38.04;32.74
56038;BME280;41907;47.848;9.000;2023-09-12T09:43:21;95580.75;;;38.15;31.74
56038;BME280;41907;47.848;9.000;2023-09-12T09:45:47;95578.47;;;38.14;32.12
56038;BME280;41907;47.848;9.000;2023-09-12T09:48:23;95576.28;;;38.23;31.90
56038;BME280;41907;47.848;9.000;2023-09-12T09:50:49;95571.47;;;37.98;32.04
56038;BME280;41907;47.848;9.000;2023-09-12T09:53:15;95573.31;;;37.81;33.00
56038;BME280;41907;47.848;9.000;2023-09-12T09:55:40;95573.34;;;37.20;32.42
56038;BME280;41907;47.848;9.000;2023-09-12T09:58:07;95554.78;;;36.76;32.99
56038;BME280;41907;47.848;9.000;2023-09-12T10:00:34;95557.25;;;36.89;33.47
56038;BME280;41907;47.848;9.000;2023-09-12T10:03:04;95564.41;;;36.96;34.07
56038;BME280;41907;47.848;9.000;2023-09-12T10:05:31;95554.97;;;37.28;34.12
56038;BME280;41907;47.848;9.000;2023-09-12T10:07:57;95554.75;;;37.11;32.89
56038;BME280;41907;47.848;9.000;2023-09-12T10:10:24;95553.38;;;37.42;34.13
56038;BME280;41907;47.848;9.000;2023-09-12T10:12:58;95542.41;;;37.33;33.91
56038;BME280;41907;47.848;9.000;2023-09-12T10:15:28;95550.28;;;37.34;33.11
56038;BME280;41907;47.848;9.000;2023-09-12T10:17:57;95544.56;;;37.64;33.71
56038;BME280;41907;47.848;9.000;2023-09-12T10:20:35;95554.16;;;37.22;34.71
56038;BME280;41907;47.848;9.000;2023-09-12T10:23:13;95544.50;;;36.03;34.32
56038;BME280;41907;47.848;9.000;2023-09-12T10:25:40;95544.97;;;36.16;34.75
56038;BME280;41907;47.848;9.000;2023-09-12T10:28:06;95548.13;;;35.27;36.52
56038;BME280;41907;47.848;9.000;2023-09-12T10:30:32;95543.66;;;35.59;36.54
56038;BME280;41907;47.848;9.000;2023-09-12T10:33:01;95541.34;;;35.81;36.75
56038;BME280;41907;47.848;9.000;2023-09-12T10:35:27;95539.00;;;35.65;36.72
56038;BME280;41907;47.848;9.000;2023-09-12T10:37:55;95540.34;;;35.55;36.83
56038;BME280;41907;47.848;9.000;2023-09-12T10:40:25;95539.59;;;35.06;37.71
56038;BME280;41907;47.848;9.000;2023-09-12T10:42:52;95538.72;;;34.67;37.58
56038;BME280;41907;47.848;9.000;2023-09-12T10:45:19;95533.13;;;34.53;38.56
56038;BME280;41907;47.848;9.000;2023-09-12T10:47:45;95531.81;;;34.30;41.52
56038;BME280;41907;47.848;9.000;2023-09-12T10:50:11;95532.56;;;34.40;40.10
56038;BME280;41907;47.848;9.000;2023-09-12T10:52:38;95532.97;;;34.47;40.54
56038;BME280;41907;47.848;9.000;2023-09-12T10:55:05;95536.25;;;34.37;40.47
56038;BME280;41907;47.848;9.000;2023-09-12T10:57:31;95532.03;;;33.99;40.00
56038;BME280;41907;47.848;9.000;2023-09-12T11:02:33;95516.25;;;32.81;40.82
56038;BME280;41907;47.848;9.000;2023-09-12T11:05:01;95516.00;;;32.66;42.95
56038;BME280;41907;47.848;9.000;2023-09-12T11:12:42;95496.00;;;33.11;42.04
56038;BME280;41907;47.848;9.000;2023-09-12T11:15:08;95510.88;;;33.05;39.09
56038;BME280;41907;47.848;9.000;2023-09-12T11:17:39;95500.00;;;32.43;40.45
56038;BME280;41907;47.848;9.000;2023-09-12T11:20:05;95495.16;;;31.85;43.92
56038;BME280;41907;47.848;9.000;2023-09-12T11:22:38;95497.00;;;31.44;44.40
56038;BME280;41907;47.848;9.000;2023-09-12T11:28:02;95493.75;;;31.37;44.85
56038;BME280;41907;47.848;9.000;2023-09-12T11:30:29;95486.28;;;31.90;44.35
56038;BME280;41907;47.848;9.000;2023-09-12T11:32:56;95486.88;;;32.16;43.62
56038;BME280;41907;47.848;9.000;2023-09-12T11:35:23;95481.16;;;32.50;44.73
56038;BME280;41907;47.848;9.000;2023-09-12T11:37:51;95484.63;;;32.82;43.12
56038;BME280;41907;47.848;9.000;2023-09-12T11:40:19;95480.25;;;32.53;43.43
56038;BME280;41907;47.848;9.000;2023-09-12T11:42:47;95477.69;;;32.19;43.80
56038;BME280;41907;47.848;9.000;2023-09-12T11:45:17;95479.38;;;32.17;45.30
56038;BME280;41907;47.848;9.000;2023-09-12T11:47:44;95471.63;;;31.50;44.65
56038;BME280;41907;47.848;9.000;2023-09-12T11:50:29;95466.06;;;31.40;46.80
56038;BME280;41907;47.848;9.000;2023-09-12T11:53:10;95462.66;;;31.58;43.09
56038;BME280;41907;47.848;9.000;2023-09-12T11:58:33;95459.19;;;31.45;45.67
56038;BME280;41907;47.848;9.000;2023-09-12T12:00:59;95465.25;;;31.62;46.71
56038;BME280;41907;47.848;9.000;2023-09-12T12:03:26;95465.53;;;31.76;45.42
56038;BME280;41907;47.848;9.000;2023-09-12T12:05:52;95462.09;;;31.63;46.42
56038;BME280;41907;47.848;9.000;2023-09-12T12:08:18;95457.84;;;30.59;46.70
56038;BME280;41907;47.848;9.000;2023-09-12T12:10:49;95454.47;;;30.55;47.07
56038;BME280;41907;47.848;9.000;2023-09-12T12:13:18;95453.00;;;30.50;48.30
56038;BME280;41907;47.848;9.000;2023-09-12T12:15:44;95451.66;;;30.67;47.22
56038;BME280;41907;47.848;9.000;2023-09-12T12:18:09;95442.84;;;30.73;48.47
56038;BME280;41907;47.848;9.000;2023-09-12T12:20:35;95445.00;;;30.90;45.92
56038;BME280;41907;47.848;9.000;2023-09-12T12:23:01;95439.44;;;30.68;45.52
56038;BME280;41907;47.848;9.000;2023-09-12T12:25:26;95431.94;;;31.03;46.78
56038;BME280;41907;47.848;9.000;2023-09-12T12:27:52;95437.00;;;31.05;43.22
56038;BME280;41907;47.848;9.000;2023-09-12T12:30:18;95435.78;;;31.06;45.11
56038;BME280;41907;47.848;9.000;2023-09-12T12:32:45;95442.19;;;30.68;45.18
56038;BME280;41907;47.848;9.000;2023-09-12T12:35:21;95440.75;;;30.77;44.98
56038;BME280;41907;47.848;9.000;2023-09-12T12:37:51;95430.16;;;30.53;47.57
56038;BME280;41907;47.848;9.000;2023-09-12T12:40:17;95436.72;;;30.90;47.55
56038;BME280;41907;47.848;9.000;2023-09-12T12:42:43;95428.88;;;31.01;45.21
56038;BME280;41907;47.848;9.000;2023-09-12T12:45:19;95433.06;;;31.28;47.00
56038;BME280;41907;47.848;9.000;2023-09-12T12:47:45;95424.34;;;31.29;45.68
56038;BME280;41907;47.848;9.000;2023-09-12T12:50:15;95418.34;;;31.22;45.50
56038;BME280;41907;47.848;9.000;2023-09-12T12:52:41;95416.88;;;30.95;43.74
56038;BME280;41907;47.848;9.000;2023-09-12T12:55:09;95413.88;;;30.21;44.02
56038;BME280;41907;47.848;9.000;2023-09-12T12:57:36;95406.88;;;29.94;44.67
56038;BME280;41907;47.848;9.000;2023-09-12T13:00:14;95406.09;;;30.07;46.28
56038;BME280;41907;47.848;9.000;2023-09-12T13:02:40;95403.78;;;30.18;45.99
56038;BME280;41907;47.848;9.000;2023-09-12T13:05:19;95401.75;;;30.31;47.76
56038;BME280;41907;47.848;9.000;2023-09-12T13:07:45;95396.69;;;30.29;44.99
56038;BME280;41907;47.848;9.000;2023-09-12T13:10:10;95391.31;;;30.26;47.46